Cleveland, TN (37311)

11:43 PM EST on February 28, 2015 (GMT -0500)
Cleveland | Change Station
CLOSE
Current Station
Personal Weather Station
Location: Cleveland, TN
Elevation: 896 ft
Nearby Weather Stations

Elev 896 ft 35.19 °N, 84.86 °W | Updated 7 minutes ago

Mostly Cloudy
Mostly Cloudy
34.5 °F
Feels Like 34 °F
N
0.0
Wind Variable Wind from SSW

Today
High -- | Low -- °F
--% Chance of Precip.
Yesterday
High -- | Low -- °F
Precip. -- in
7:10 AM 6:33 PM
Waxing Gibbous, 82% visible
Pressure 30.50 in
Visibility 10.0 miles
Clouds Scattered Clouds 5500 ft
Windchill 34 °F
Dew Point 30 °F
Humidity 85%
Rainfall 0.00 in
Snow Depth Not available.
UV 0 out of 12
Pollen 3.30 out of 12
Air Quality Not available.
Flu Activity Not available.
METAR KRZR 010435Z AUTO 00000KT 10SM SCT055 M01/M03 A3050 RMK

More Conditions Fewer Conditions

Pressure 30.50 in
Visibility 10.0 miles
Clouds Scattered Clouds 5500 ft
Windchill 34 °F
Dew Point 30 °F
Humidity 85%
Rainfall 0.00 in
Snow Depth Not available.
UV 0 out of 12
Pollen 3.30 out of 12
Air Quality Not available.
Flu Activity Not available.
METAR KRZR 010435Z AUTO 00000KT 10SM SCT055 M01/M03 A3050 RMK

More Conditions Fewer Conditions

10-Day Weather Forecast

Almanac

Astronomy

Feb. 28, 2015 Rise Set
Actual Time
Civil Twilight
Nautical Twilight
Astronomical Twilight
Moon
Length of Visible Light
Length of Day
Tomorrow will be .
, % of the Moon is Illuminated

Today's Extremes

State Highs State Lows

Community

WunderPhotos

Upload Photos

1,801,320 photos uploaded!

WunderBlogs® & News

Nearby

Air Quality

  Air Quality AQ Index Pollutant
Not available.

Snow Depth

Station Depth Elevation

Earthquake Activity

City Distance Mag. Time & Date
Minimum magnitude displayed is 2.5.

Coastal Water Temperatures

Place Temperature

Nearby Weather Stations